sensor_id;sensor_type;location;lat;lon;timestamp;pressure;altitude;pressure_sealevel;temperature;humidity
28448;BME280;15675;52.870;-1.416;2024-01-30T00:01:13;101208.78;;;12.97;100.00
28448;BME280;15675;52.870;-1.416;2024-01-30T00:03:39;101202.75;;;13.13;100.00
28448;BME280;15675;52.870;-1.416;2024-01-30T00:06:05;101206.22;;;13.15;100.00
28448;BME280;15675;52.870;-1.416;2024-01-30T00:08:30;101202.75;;;13.08;100.00
28448;BME280;15675;52.870;-1.416;2024-01-30T00:10:56;101200.97;;;12.83;100.00
28448;BME280;15675;52.870;-1.416;2024-01-30T00:13:21;101209.63;;;12.72;100.00
28448;BME280;15675;52.870;-1.416;2024-01-30T00:15:48;101200.97;;;12.83;100.00
28448;BME280;15675;52.870;-1.416;2024-01-30T00:18:17;101201.78;;;12.65;100.00
28448;BME280;15675;52.870;-1.416;2024-01-30T00:20:44;101201.84;;;12.88;100.00
28448;BME280;15675;52.870;-1.416;2024-01-30T00:23:09;101194.88;;;12.76;100.00
28448;BME280;15675;52.870;-1.416;2024-01-30T00:25:35;101202.66;;;12.62;100.00
28448;BME280;15675;52.870;-1.416;2024-01-30T00:31:22;101194.78;;;12.50;100.00
28448;BME280;15675;52.870;-1.416;2024-01-30T00:33:48;101195.69;;;12.52;100.00
28448;BME280;15675;52.870;-1.416;2024-01-30T00:36:13;101196.59;;;12.74;100.00
28448;BME280;15675;52.870;-1.416;2024-01-30T00:38:39;101200.81;;;12.33;100.00
28448;BME280;15675;52.870;-1.416;2024-01-30T00:41:08;101200.09;;;12.71;100.00
28448;BME280;15675;52.870;-1.416;2024-01-30T00:43:34;101202.66;;;12.59;100.00
28448;BME280;15675;52.870;-1.416;2024-01-30T00:46:00;101197.31;;;12.22;100.00
28448;BME280;15675;52.870;-1.416;2024-01-30T00:48:26;101201.81;;;12.72;100.00
28448;BME280;15675;52.870;-1.416;2024-01-30T00:50:51;101201.81;;;12.66;100.00
28448;BME280;15675;52.870;-1.416;2024-01-30T00:53:17;101198.28;;;12.53;100.00
28448;BME280;15675;52.870;-1.416;2024-01-30T00:55:43;101189.56;;;12.36;100.00
28448;BME280;15675;52.870;-1.416;2024-01-30T00:58:08;101193.97;;;12.57;100.00
28448;BME280;15675;52.870;-1.416;2024-01-30T01:00:34;101192.22;;;12.57;100.00
28448;BME280;15675;52.870;-1.416;2024-01-30T01:03:00;101199.13;;;12.41;100.00
28448;BME280;15675;52.870;-1.416;2024-01-30T01:05:25;101198.34;;;12.70;100.00
28448;BME280;15675;52.870;-1.416;2024-01-30T01:07:51;101202.69;;;12.76;100.00
28448;BME280;15675;52.870;-1.416;2024-01-30T01:10:17;101190.47;;;12.46;100.00
28448;BME280;15675;52.870;-1.416;2024-01-30T01:12:43;101192.22;;;12.56;100.00
28448;BME280;15675;52.870;-1.416;2024-01-30T01:15:10;101186.22;;;12.86;100.00
28448;BME280;15675;52.870;-1.416;2024-01-30T01:17:36;101194.84;;;12.67;100.00
28448;BME280;15675;52.870;-1.416;2024-01-30T01:20:03;101188.78;;;12.69;100.00
28448;BME280;15675;52.870;-1.416;2024-01-30T01:22:30;101187.91;;;12.78;100.00
28448;BME280;15675;52.870;-1.416;2024-01-30T01:24:56;101187.03;;;12.65;100.00
28448;BME280;15675;52.870;-1.416;2024-01-30T01:27:22;101186.13;;;12.54;100.00
28448;BME280;15675;52.870;-1.416;2024-01-30T01:29:47;101180.06;;;12.61;100.00
28448;BME280;15675;52.870;-1.416;2024-01-30T01:32:13;101184.41;;;12.60;100.00
28448;BME280;15675;52.870;-1.416;2024-01-30T01:34:38;101180.09;;;12.76;100.00
28448;BME280;15675;52.870;-1.416;2024-01-30T01:37:04;101185.31;;;12.67;100.00
28448;BME280;15675;52.870;-1.416;2024-01-30T01:39:29;101187.81;;;12.42;100.00
28448;BME280;15675;52.870;-1.416;2024-01-30T01:41:55;101188.72;;;12.45;100.00
28448;BME280;15675;52.870;-1.416;2024-01-30T01:44:20;101186.97;;;12.34;100.00
28448;BME280;15675;52.870;-1.416;2024-01-30T01:46:46;101189.59;;;12.48;100.00
28448;BME280;15675;52.870;-1.416;2024-01-30T01:49:12;101185.22;;;12.42;100.00
28448;BME280;15675;52.870;-1.416;2024-01-30T01:51:38;101180.84;;;12.35;100.00
28448;BME280;15675;52.870;-1.416;2024-01-30T01:54:06;101182.59;;;12.27;100.00
28448;BME280;15675;52.870;-1.416;2024-01-30T01:56:33;101187.88;;;12.53;100.00
28448;BME280;15675;52.870;-1.416;2024-01-30T01:59:06;101186.09;;;12.40;100.00
28448;BME280;15675;52.870;-1.416;2024-01-30T02:01:33;101184.41;;;12.60;100.00
28448;BME280;15675;52.870;-1.416;2024-01-30T02:04:00;101180.84;;;12.21;100.00
28448;BME280;15675;52.870;-1.416;2024-01-30T02:06:26;101192.94;;;12.22;100.00
28448;BME280;15675;52.870;-1.416;2024-01-30T02:08:52;101186.88;;;12.19;100.00
28448;BME280;15675;52.870;-1.416;2024-01-30T02:11:18;101187.78;;;12.27;100.00
28448;BME280;15675;52.870;-1.416;2024-01-30T02:13:45;101190.31;;;12.12;100.00
28448;BME280;15675;52.870;-1.416;2024-01-30T02:16:10;101186.03;;;12.24;100.00
28448;BME280;15675;52.870;-1.416;2024-01-30T02:18:36;101185.91;;;12.01;100.00
28448;BME280;15675;52.870;-1.416;2024-01-30T02:21:07;101192.03;;;12.11;100.00
28448;BME280;15675;52.870;-1.416;2024-01-30T02:23:33;101199.00;;;12.17;100.00
28448;BME280;15675;52.870;-1.416;2024-01-30T02:25:59;101191.25;;;12.31;100.00
28448;BME280;15675;52.870;-1.416;2024-01-30T02:28:24;101191.09;;;11.98;100.00
28448;BME280;15675;52.870;-1.416;2024-01-30T02:30:50;101190.34;;;12.18;100.00
28448;BME280;15675;52.870;-1.416;2024-01-30T02:33:15;101185.97;;;12.11;100.00
28448;BME280;15675;52.870;-1.416;2024-01-30T02:35:41;101188.56;;;12.11;100.00
28448;BME280;15675;52.870;-1.416;2024-01-30T02:38:07;101186.03;;;12.24;100.00
28448;BME280;15675;52.870;-1.416;2024-01-30T02:40:32;101188.44;;;11.92;100.00
28448;BME280;15675;52.870;-1.416;2024-01-30T02:42:59;101186.00;;;12.17;100.00
28448;BME280;15675;52.870;-1.416;2024-01-30T02:45:25;101183.28;;;11.97;100.00
28448;BME280;15675;52.870;-1.416;2024-01-30T02:47:51;101193.78;;;12.17;100.00
28448;BME280;15675;52.870;-1.416;2024-01-30T02:50:16;101180.84;;;12.23;100.00
28448;BME280;15675;52.870;-1.416;2024-01-30T02:52:42;101180.75;;;12.04;100.00
28448;BME280;15675;52.870;-1.416;2024-01-30T02:55:11;101188.59;;;12.18;100.00
28448;BME280;15675;52.870;-1.416;2024-01-30T02:57:40;101185.97;;;12.04;100.00
28448;BME280;15675;52.870;-1.416;2024-01-30T03:00:06;101175.44;;;11.92;100.00
28448;BME280;15675;52.870;-1.416;2024-01-30T03:02:34;101183.38;;;12.14;100.00
28448;BME280;15675;52.870;-1.416;2024-01-30T03:05:00;101186.84;;;12.13;100.00
28448;BME280;15675;52.870;-1.416;2024-01-30T03:07:25;101181.63;;;12.13;100.00
28448;BME280;15675;52.870;-1.416;2024-01-30T03:09:51;101196.25;;;11.92;100.00
28448;BME280;15675;52.870;-1.416;2024-01-30T03:12:17;101202.16;;;11.63;100.00
28448;BME280;15675;52.870;-1.416;2024-01-30T03:14:42;101220.97;;;10.48;100.00
28448;BME280;15675;52.870;-1.416;2024-01-30T03:17:08;101232.78;;;9.66;100.00
28448;BME280;15675;52.870;-1.416;2024-01-30T03:19:33;101253.84;;;9.35;100.00
28448;BME280;15675;52.870;-1.416;2024-01-30T03:21:59;101258.16;;;9.32;100.00
28448;BME280;15675;52.870;-1.416;2024-01-30T03:24:25;101271.66;;;9.16;100.00
28448;BME280;15675;52.870;-1.416;2024-01-30T03:26:51;101272.69;;;9.26;100.00
28448;BME280;15675;52.870;-1.416;2024-01-30T03:29:16;101278.34;;;9.52;100.00
28448;BME280;15675;52.870;-1.416;2024-01-30T03:31:42;101275.75;;;9.50;100.00
28448;BME280;15675;52.870;-1.416;2024-01-30T03:34:07;101281.00;;;9.55;100.00
28448;BME280;15675;52.870;-1.416;2024-01-30T03:36:33;101280.44;;;9.24;100.00
28448;BME280;15675;52.870;-1.416;2024-01-30T03:39:00;101287.09;;;9.60;100.00
28448;BME280;15675;52.870;-1.416;2024-01-30T03:41:25;101297.44;;;9.59;100.00
28448;BME280;15675;52.870;-1.416;2024-01-30T03:43:51;101293.78;;;9.46;100.00
28448;BME280;15675;52.870;-1.416;2024-01-30T03:46:19;101306.31;;;9.21;100.00
28448;BME280;15675;52.870;-1.416;2024-01-30T03:48:47;101297.41;;;9.07;100.00
28448;BME280;15675;52.870;-1.416;2024-01-30T03:51:13;101302.09;;;9.26;100.00
28448;BME280;15675;52.870;-1.416;2024-01-30T03:53:40;101303.13;;;9.38;100.00
28448;BME280;15675;52.870;-1.416;2024-01-30T03:56:07;101311.44;;;9.20;100.00
28448;BME280;15675;52.870;-1.416;2024-01-30T03:58:33;101314.00;;;9.17;100.00
28448;BME280;15675;52.870;-1.416;2024-01-30T04:00:58;101320.41;;;9.37;100.00
28448;BME280;15675;52.870;-1.416;2024-01-30T04:03:24;101331.41;;;9.24;100.00
28448;BME280;15675;52.870;-1.416;2024-01-30T04:05:50;101314.25;;;8.86;100.00
28448;BME280;15675;52.870;-1.416;2024-01-30T04:08:16;101323.50;;;9.19;100.00
28448;BME280;15675;52.870;-1.416;2024-01-30T04:10:42;101324.91;;;9.02;100.00
28448;BME280;15675;52.870;-1.416;2024-01-30T04:13:08;101317.38;;;9.12;100.00
28448;BME280;15675;52.870;-1.416;2024-01-30T04:15:34;101325.97;;;9.11;100.00
28448;BME280;15675;52.870;-1.416;2024-01-30T04:18:00;101314.50;;;8.98;100.00
28448;BME280;15675;52.870;-1.416;2024-01-30T04:20:25;101322.63;;;8.73;100.00
28448;BME280;15675;52.870;-1.416;2024-01-30T04:22:51;101335.25;;;9.00;100.00
28448;BME280;15675;52.870;-1.416;2024-01-30T04:25:16;101335.94;;;8.91;100.00
28448;BME280;15675;52.870;-1.416;2024-01-30T04:27:42;101338.94;;;9.13;100.00
28448;BME280;15675;52.870;-1.416;2024-01-30T04:30:08;101357.00;;;8.67;100.00
28448;BME280;15675;52.870;-1.416;2024-01-30T04:32:34;101350.97;;;8.67;100.00
28448;BME280;15675;52.870;-1.416;2024-01-30T04:35:00;101371.47;;;8.59;100.00
28448;BME280;15675;52.870;-1.416;2024-01-30T04:37:26;101369.97;;;8.69;100.00
28448;BME280;15675;52.870;-1.416;2024-01-30T04:39:51;101375.75;;;8.20;100.00
28448;BME280;15675;52.870;-1.416;2024-01-30T04:42:17;101377.28;;;8.13;100.00
28448;BME280;15675;52.870;-1.416;2024-01-30T04:44:42;101391.41;;;8.26;100.00
28448;BME280;15675;52.870;-1.416;2024-01-30T04:47:08;101378.13;;;8.11;100.00
28448;BME280;15675;52.870;-1.416;2024-01-30T04:49:36;101388.50;;;8.12;100.00
28448;BME280;15675;52.870;-1.416;2024-01-30T04:52:02;101402.88;;;8.01;100.00
28448;BME280;15675;52.870;-1.416;2024-01-30T04:54:27;101388.16;;;7.99;100.00
28448;BME280;15675;52.870;-1.416;2024-01-30T04:56:53;101413.19;;;8.00;100.00
28448;BME280;15675;52.870;-1.416;2024-01-30T04:59:18;101397.47;;;7.92;100.00
28448;BME280;15675;52.870;-1.416;2024-01-30T05:01:44;101408.41;;;7.82;100.00
28448;BME280;15675;52.870;-1.416;2024-01-30T05:04:10;101424.75;;;7.81;100.00
28448;BME280;15675;52.870;-1.416;2024-01-30T05:06:36;101419.75;;;8.22;100.00
28448;BME280;15675;52.870;-1.416;2024-01-30T05:09:02;101420.72;;;7.58;100.00
28448;BME280;15675;52.870;-1.416;2024-01-30T05:11:30;101422.13;;;7.47;100.00
28448;BME280;15675;52.870;-1.416;2024-01-30T05:13:55;101432.84;;;7.61;100.00
28448;BME280;15675;52.870;-1.416;2024-01-30T05:16:21;101430.13;;;7.24;100.00
28448;BME280;15675;52.870;-1.416;2024-01-30T05:18:46;101452.41;;;7.51;100.00
28448;BME280;15675;52.870;-1.416;2024-01-30T05:21:12;101436.13;;;7.25;100.00
28448;BME280;15675;52.870;-1.416;2024-01-30T05:23:37;101449.22;;;7.62;100.00
28448;BME280;15675;52.870;-1.416;2024-01-30T05:26:03;101447.50;;;7.30;100.00
28448;BME280;15675;52.870;-1.416;2024-01-30T05:28:32;101467.19;;;7.57;100.00
28448;BME280;15675;52.870;-1.416;2024-01-30T05:30:58;101471.22;;;7.47;100.00
28448;BME280;15675;52.870;-1.416;2024-01-30T05:33:23;101478.88;;;7.44;100.00
28448;BME280;15675;52.870;-1.416;2024-01-30T05:35:49;101483.84;;;7.38;100.00
28448;BME280;15675;52.870;-1.416;2024-01-30T05:38:18;101489.44;;;7.52;100.00
28448;BME280;15675;52.870;-1.416;2024-01-30T05:40:43;101491.50;;;7.04;100.00
28448;BME280;15675;52.870;-1.416;2024-01-30T05:43:09;101498.59;;;7.12;100.00
28448;BME280;15675;52.870;-1.416;2024-01-30T05:45:34;101495.53;;;6.96;100.00
28448;BME280;15675;52.870;-1.416;2024-01-30T05:48:01;101511.56;;;7.43;100.00
28448;BME280;15675;52.870;-1.416;2024-01-30T05:50:26;101509.47;;;7.60;100.00
28448;BME280;15675;52.870;-1.416;2024-01-30T05:52:52;101509.47;;;7.30;100.00
28448;BME280;15675;52.870;-1.416;2024-01-30T05:55:18;101514.69;;;7.62;100.00
28448;BME280;15675;52.870;-1.416;2024-01-30T05:57:44;101528.97;;;7.20;100.00
28448;BME280;15675;52.870;-1.416;2024-01-30T06:00:09;101539.16;;;7.16;100.00
28448;BME280;15675;52.870;-1.416;2024-01-30T06:02:36;101536.16;;;7.02;100.00
28448;BME280;15675;52.870;-1.416;2024-01-30T06:05:01;101536.53;;;7.43;100.00
28448;BME280;15675;52.870;-1.416;2024-01-30T06:07:27;101557.69;;;7.30;100.00
28448;BME280;15675;52.870;-1.416;2024-01-30T06:09:52;101549.16;;;7.05;100.00
28448;BME280;15675;52.870;-1.416;2024-01-30T06:12:18;101557.44;;;6.95;100.00
28448;BME280;15675;52.870;-1.416;2024-01-30T06:14:43;101566.31;;;7.03;100.00
28448;BME280;15675;52.870;-1.416;2024-01-30T06:17:09;101583.50;;;7.02;100.00
28448;BME280;15675;52.870;-1.416;2024-01-30T06:19:35;101583.34;;;7.25;100.00
28448;BME280;15675;52.870;-1.416;2024-01-30T06:22:00;101581.81;;;7.03;100.00
28448;BME280;15675;52.870;-1.416;2024-01-30T06:24:26;101588.91;;;7.37;100.00
28448;BME280;15675;52.870;-1.416;2024-01-30T06:26:53;101594.69;;;7.59;100.00
28448;BME280;15675;52.870;-1.416;2024-01-30T06:29:18;101597.41;;;7.35;100.00
28448;BME280;15675;52.870;-1.416;2024-01-30T06:31:44;101602.16;;;7.48;100.00
28448;BME280;15675;52.870;-1.416;2024-01-30T06:34:10;101614.06;;;7.16;100.00
28448;BME280;15675;52.870;-1.416;2024-01-30T06:36:37;101610.28;;;7.06;100.00
28448;BME280;15675;52.870;-1.416;2024-01-30T06:39:03;101614.91;;;7.16;100.00
28448;BME280;15675;52.870;-1.416;2024-01-30T06:41:28;101620.91;;;7.15;100.00
28448;BME280;15675;52.870;-1.416;2024-01-30T06:43:55;101626.19;;;7.18;100.00
28448;BME280;15675;52.870;-1.416;2024-01-30T06:46:20;101615.88;;;7.47;100.00
28448;BME280;15675;52.870;-1.416;2024-01-30T06:48:46;101624.44;;;7.17;100.00
28448;BME280;15675;52.870;-1.416;2024-01-30T06:51:11;101642.38;;;6.87;100.00
28448;BME280;15675;52.870;-1.416;2024-01-30T06:53:37;101633.69;;;6.85;100.00
28448;BME280;15675;52.870;-1.416;2024-01-30T06:56:03;101648.75;;;6.98;100.00
28448;BME280;15675;52.870;-1.416;2024-01-30T06:58:29;101658.69;;;7.12;100.00
28448;BME280;15675;52.870;-1.416;2024-01-30T07:00:55;101663.47;;;6.75;100.00
28448;BME280;15675;52.870;-1.416;2024-01-30T07:03:21;101671.13;;;6.98;100.00
28448;BME280;15675;52.870;-1.416;2024-01-30T07:05:47;101676.38;;;7.01;100.00
28448;BME280;15675;52.870;-1.416;2024-01-30T07:08:12;101667.34;;;6.88;100.00
28448;BME280;15675;52.870;-1.416;2024-01-30T07:10:38;101681.97;;;6.87;100.00
28448;BME280;15675;52.870;-1.416;2024-01-30T07:13:03;101686.09;;;6.58;100.00
28448;BME280;15675;52.870;-1.416;2024-01-30T07:15:31;101707.38;;;6.28;100.00
28448;BME280;15675;52.870;-1.416;2024-01-30T07:17:56;101715.38;;;6.34;100.00
28448;BME280;15675;52.870;-1.416;2024-01-30T07:20:22;101700.25;;;6.45;100.00
28448;BME280;15675;52.870;-1.416;2024-01-30T07:22:47;101713.44;;;6.29;100.00
28448;BME280;15675;52.870;-1.416;2024-01-30T07:25:13;101713.78;;;6.15;100.00
28448;BME280;15675;52.870;-1.416;2024-01-30T07:27:38;101720.00;;;6.20;100.00
28448;BME280;15675;52.870;-1.416;2024-01-30T07:30:04;101728.91;;;6.29;100.00
28448;BME280;15675;52.870;-1.416;2024-01-30T07:32:30;101726.09;;;6.47;100.00
28448;BME280;15675;52.870;-1.416;2024-01-30T07:34:57;101732.94;;;6.22;100.00
28448;BME280;15675;52.870;-1.416;2024-01-30T07:37:22;101733.00;;;6.24;100.00
28448;BME280;15675;52.870;-1.416;2024-01-30T07:39:48;101741.06;;;5.87;100.00
28448;BME280;15675;52.870;-1.416;2024-01-30T07:42:14;101749.44;;;6.26;100.00
28448;BME280;15675;52.870;-1.416;2024-01-30T07:44:39;101754.03;;;6.34;100.00
28448;BME280;15675;52.870;-1.416;2024-01-30T07:47:05;101772.31;;;6.41;100.00
28448;BME280;15675;52.870;-1.416;2024-01-30T07:49:31;101770.22;;;6.30;100.00
28448;BME280;15675;52.870;-1.416;2024-01-30T07:51:59;101794.06;;;6.25;100.00
28448;BME280;15675;52.870;-1.416;2024-01-30T07:54:25;101788.50;;;6.14;100.00
28448;BME280;15675;52.870;-1.416;2024-01-30T07:56:50;101800.03;;;6.24;100.00
28448;BME280;15675;52.870;-1.416;2024-01-30T07:59:16;101799.34;;;6.28;100.00
28448;BME280;15675;52.870;-1.416;2024-01-30T08:01:41;101813.94;;;6.27;100.00
28448;BME280;15675;52.870;-1.416;2024-01-30T08:04:07;101812.19;;;6.49;100.00
28448;BME280;15675;52.870;-1.416;2024-01-30T08:06:32;101809.00;;;6.33;100.00
28448;BME280;15675;52.870;-1.416;2024-01-30T08:08:58;101813.28;;;6.55;100.00
28448;BME280;15675;52.870;-1.416;2024-01-30T08:11:24;101828.34;;;6.45;100.00
28448;BME280;15675;52.870;-1.416;2024-01-30T08:13:52;101823.84;;;6.39;100.00
28448;BME280;15675;52.870;-1.416;2024-01-30T08:16:18;101838.03;;;6.28;100.00
28448;BME280;15675;52.870;-1.416;2024-01-30T08:18:44;101832.28;;;6.57;100.00
28448;BME280;15675;52.870;-1.416;2024-01-30T08:21:09;101831.97;;;6.72;100.00
28448;BME280;15675;52.870;-1.416;2024-01-30T08:23:35;101834.06;;;6.59;100.00
28448;BME280;15675;52.870;-1.416;2024-01-30T08:26:00;101848.69;;;6.60;100.00
28448;BME280;15675;52.870;-1.416;2024-01-30T08:28:26;101853.63;;;6.76;100.00
28448;BME280;15675;52.870;-1.416;2024-01-30T08:30:52;101853.56;;;6.74;100.00
28448;BME280;15675;52.870;-1.416;2024-01-30T08:33:18;101858.66;;;6.73;100.00
28448;BME280;15675;52.870;-1.416;2024-01-30T08:35:43;101867.16;;;6.70;100.00
28448;BME280;15675;52.870;-1.416;2024-01-30T08:38:09;101876.91;;;6.55;100.00
28448;BME280;15675;52.870;-1.416;2024-01-30T08:40:34;101890.44;;;6.72;100.00
28448;BME280;15675;52.870;-1.416;2024-01-30T08:43:00;101893.06;;;6.51;100.00
28448;BME280;15675;52.870;-1.416;2024-01-30T08:45:26;101896.53;;;6.74;100.00
28448;BME280;15675;52.870;-1.416;2024-01-30T08:47:51;101905.19;;;6.74;100.00
28448;BME280;15675;52.870;-1.416;2024-01-30T08:50:17;101914.84;;;6.80;100.00
28448;BME280;15675;52.870;-1.416;2024-01-30T08:52:43;101922.63;;;6.59;100.00
28448;BME280;15675;52.870;-1.416;2024-01-30T08:55:08;101919.97;;;6.79;100.00
28448;BME280;15675;52.870;-1.416;2024-01-30T08:57:34;101935.56;;;6.82;100.00
28448;BME280;15675;52.870;-1.416;2024-01-30T09:00:00;101939.00;;;7.05;100.00
28448;BME280;15675;52.870;-1.416;2024-01-30T09:02:27;101946.00;;;7.07;100.00
28448;BME280;15675;52.870;-1.416;2024-01-30T09:04:53;101948.94;;;6.94;100.00
28448;BME280;15675;52.870;-1.416;2024-01-30T09:07:18;101966.44;;;7.01;100.00
28448;BME280;15675;52.870;-1.416;2024-01-30T09:09:44;101962.94;;;7.01;100.00
28448;BME280;15675;52.870;-1.416;2024-01-30T09:12:10;101962.19;;;7.03;100.00
28448;BME280;15675;52.870;-1.416;2024-01-30T09:14:37;101982.41;;;7.15;100.00
28448;BME280;15675;52.870;-1.416;2024-01-30T09:17:03;101973.63;;;6.87;100.00
28448;BME280;15675;52.870;-1.416;2024-01-30T09:19:29;101977.59;;;6.79;100.00
28448;BME280;15675;52.870;-1.416;2024-01-30T09:21:55;101989.81;;;7.06;100.00
28448;BME280;15675;52.870;-1.416;2024-01-30T09:24:20;101987.13;;;7.03;100.00
28448;BME280;15675;52.870;-1.416;2024-01-30T09:26:46;101996.22;;;7.38;100.00
28448;BME280;15675;52.870;-1.416;2024-01-30T09:29:11;101995.09;;;7.09;100.00
28448;BME280;15675;52.870;-1.416;2024-01-30T09:31:37;102000.56;;;6.94;100.00
28448;BME280;15675;52.870;-1.416;2024-01-30T09:34:03;101994.53;;;6.72;100.00
28448;BME280;15675;52.870;-1.416;2024-01-30T09:36:28;101996.19;;;6.70;100.00
28448;BME280;15675;52.870;-1.416;2024-01-30T09:38:54;102005.97;;;7.00;100.00
28448;BME280;15675;52.870;-1.416;2024-01-30T09:41:20;102015.97;;;6.93;100.00
28448;BME280;15675;52.870;-1.416;2024-01-30T09:43:50;102017.66;;;7.13;100.00
28448;BME280;15675;52.870;-1.416;2024-01-30T09:46:17;102016.13;;;6.96;100.00
28448;BME280;15675;52.870;-1.416;2024-01-30T09:48:46;102020.94;;;7.09;100.00
28448;BME280;15675;52.870;-1.416;2024-01-30T09:51:14;102032.72;;;7.25;100.00
28448;BME280;15675;52.870;-1.416;2024-01-30T09:53:40;102033.63;;;7.25;100.00
28448;BME280;15675;52.870;-1.416;2024-01-30T09:56:06;102048.69;;;7.15;100.00
28448;BME280;15675;52.870;-1.416;2024-01-30T09:58:31;102049.69;;;7.18;100.00
28448;BME280;15675;52.870;-1.416;2024-01-30T10:00:57;102063.13;;;7.32;100.00
28448;BME280;15675;52.870;-1.416;2024-01-30T10:03:22;102069.84;;;7.50;100.00
28448;BME280;15675;52.870;-1.416;2024-01-30T10:05:52;102073.06;;;7.44;100.00
28448;BME280;15675;52.870;-1.416;2024-01-30T10:08:18;102075.88;;;7.50;100.00
28448;BME280;15675;52.870;-1.416;2024-01-30T10:10:47;102079.09;;;7.45;100.00
28448;BME280;15675;52.870;-1.416;2024-01-30T10:13:13;102085.88;;;7.65;100.00
28448;BME280;15675;52.870;-1.416;2024-01-30T10:15:38;102091.19;;;7.68;100.00
28448;BME280;15675;52.870;-1.416;2024-01-30T10:18:04;102093.56;;;7.86;100.00
28448;BME280;15675;52.870;-1.416;2024-01-30T10:20:32;102089.47;;;7.91;100.00
28448;BME280;15675;52.870;-1.416;2024-01-30T10:22:58;102106.75;;;7.92;100.00
28448;BME280;15675;52.870;-1.416;2024-01-30T10:25:23;102096.50;;;7.95;100.00
28448;BME280;15675;52.870;-1.416;2024-01-30T10:27:53;102107.69;;;7.72;100.00
28448;BME280;15675;52.870;-1.416;2024-01-30T10:30:23;102116.84;;;7.41;100.00
28448;BME280;15675;52.870;-1.416;2024-01-30T10:32:49;102131.06;;;7.30;100.00
28448;BME280;15675;52.870;-1.416;2024-01-30T10:35:15;102129.13;;;7.47;100.00
28448;BME280;15675;52.870;-1.416;2024-01-30T10:37:47;102129.53;;;7.80;100.00
28448;BME280;15675;52.870;-1.416;2024-01-30T10:40:14;102126.75;;;7.51;100.00
28448;BME280;15675;52.870;-1.416;2024-01-30T10:42:45;102139.19;;;7.62;100.00
28448;BME280;15675;52.870;-1.416;2024-01-30T10:45:11;102150.50;;;7.88;100.00
28448;BME280;15675;52.870;-1.416;2024-01-30T10:47:54;102162.69;;;8.15;100.00
28448;BME280;15675;52.870;-1.416;2024-01-30T10:50:24;102160.63;;;8.28;100.00
28448;BME280;15675;52.870;-1.416;2024-01-30T10:52:51;102168.63;;;8.12;100.00
28448;BME280;15675;52.870;-1.416;2024-01-30T10:55:18;102174.06;;;7.95;100.00
28448;BME280;15675;52.870;-1.416;2024-01-30T10:57:44;102173.72;;;7.86;100.00
28448;BME280;15675;52.870;-1.416;2024-01-30T11:00:11;102180.81;;;7.69;100.00
28448;BME280;15675;52.870;-1.416;2024-01-30T11:02:40;102186.50;;;8.06;100.00
28448;BME280;15675;52.870;-1.416;2024-01-30T11:05:05;102191.53;;;8.01;100.00
28448;BME280;15675;52.870;-1.416;2024-01-30T11:07:31;102189.53;;;7.94;100.00
28448;BME280;15675;52.870;-1.416;2024-01-30T11:12:23;102198.84;;;7.68;100.00
28448;BME280;15675;52.870;-1.416;2024-01-30T11:14:49;102198.53;;;7.81;100.00
28448;BME280;15675;52.870;-1.416;2024-01-30T11:17:15;102187.06;;;7.74;100.00
28448;BME280;15675;52.870;-1.416;2024-01-30T11:19:41;102203.31;;;7.72;100.00
28448;BME280;15675;52.870;-1.416;2024-01-30T11:22:07;102214.59;;;7.51;100.00
28448;BME280;15675;52.870;-1.416;2024-01-30T11:24:40;102240.16;;;7.45;100.00
28448;BME280;15675;52.870;-1.416;2024-01-30T11:27:09;102232.28;;;7.21;100.00
28448;BME280;15675;52.870;-1.416;2024-01-30T11:29:37;102221.94;;;7.63;100.00
28448;BME280;15675;52.870;-1.416;2024-01-30T11:32:05;102226.75;;;7.76;100.00
28448;BME280;15675;52.870;-1.416;2024-01-30T11:34:32;102224.72;;;7.90;100.00
28448;BME280;15675;52.870;-1.416;2024-01-30T11:37:03;102231.25;;;7.59;100.00
28448;BME280;15675;52.870;-1.416;2024-01-30T11:39:29;102221.19;;;7.66;100.00
28448;BME280;15675;52.870;-1.416;2024-01-30T11:41:55;102227.88;;;7.60;100.00
28448;BME280;15675;52.870;-1.416;2024-01-30T11:44:21;102234.03;;;7.85;100.00
28448;BME280;15675;52.870;-1.416;2024-01-30T11:46:51;102249.94;;;7.52;100.00
28448;BME280;15675;52.870;-1.416;2024-01-30T11:49:16;102242.16;;;7.73;100.00
28448;BME280;15675;52.870;-1.416;2024-01-30T11:51:48;102242.28;;;7.76;100.00
28448;BME280;15675;52.870;-1.416;2024-01-30T11:54:17;102248.16;;;7.95;100.00
28448;BME280;15675;52.870;-1.416;2024-01-30T11:56:43;102239.47;;;7.49;100.00
28448;BME280;15675;52.870;-1.416;2024-01-30T11:59:09;102253.97;;;7.46;100.00
28448;BME280;15675;52.870;-1.416;2024-01-30T12:01:34;102262.38;;;7.61;100.00
28448;BME280;15675;52.870;-1.416;2024-01-30T12:04:00;102259.84;;;7.63;100.00
28448;BME280;15675;52.870;-1.416;2024-01-30T12:06:26;102265.88;;;7.42;100.00
28448;BME280;15675;52.870;-1.416;2024-01-30T12:08:59;102258.19;;;7.43;100.00
28448;BME280;15675;52.870;-1.416;2024-01-30T12:11:25;102265.81;;;7.40;100.00
28448;BME280;15675;52.870;-1.416;2024-01-30T12:13:52;102266.69;;;7.41;100.00
28448;BME280;15675;52.870;-1.416;2024-01-30T12:16:18;102265.06;;;7.43;100.00
28448;BME280;15675;52.870;-1.416;2024-01-30T12:18:44;102275.53;;;7.46;100.00
28448;BME280;15675;52.870;-1.416;2024-01-30T12:21:10;102281.00;;;7.54;100.00
28448;BME280;15675;52.870;-1.416;2024-01-30T12:23:35;102286.81;;;7.48;100.00
28448;BME280;15675;52.870;-1.416;2024-01-30T12:26:01;102287.94;;;7.76;100.00
28448;BME280;15675;52.870;-1.416;2024-01-30T12:28:29;102307.97;;;7.82;100.00
28448;BME280;15675;52.870;-1.416;2024-01-30T12:31:04;102308.91;;;8.27;100.00
28448;BME280;15675;52.870;-1.416;2024-01-30T12:33:30;102306.47;;;7.87;100.00
28448;BME280;15675;52.870;-1.416;2024-01-30T12:35:56;102317.56;;;7.84;100.00
28448;BME280;15675;52.870;-1.416;2024-01-30T12:38:23;102325.44;;;7.45;100.00